createdAt,value
2023-02-11T00:00:58.281Z,2.12
2023-02-11T00:03:25.743Z,1.89
2023-02-11T00:05:59.705Z,2.19
2023-02-11T00:08:28.008Z,2.13
2023-02-11T00:10:55.856Z,2.17
2023-02-11T00:13:23.429Z,2.02
2023-02-11T00:15:50.934Z,2.17
2023-02-11T00:18:17.768Z,1.86
2023-02-11T00:20:45.024Z,2.24
2023-02-11T00:23:11.997Z,2.18
2023-02-11T00:25:41.421Z,2.19
2023-02-11T00:28:10.942Z,2.03
2023-02-11T00:30:40.706Z,2.19
2023-02-11T00:33:08.219Z,2.12
2023-02-11T00:35:37.064Z,2.12
2023-02-11T00:38:03.969Z,2.04
2023-02-11T00:40:31.385Z,2.04
2023-02-11T00:42:59.610Z,1.99
2023-02-11T00:45:26.421Z,1.76
2023-02-11T00:47:55.030Z,1.75
2023-02-11T00:50:21.969Z,1.82
2023-02-11T00:52:49.224Z,1.58
2023-02-11T00:55:16.162Z,1.84
2023-02-11T00:57:43.061Z,1.60
2023-02-11T01:00:15.321Z,1.77
2023-02-11T01:02:42.272Z,1.68
2023-02-11T01:05:10.666Z,1.53
2023-02-11T01:07:37.420Z,1.65
2023-02-11T01:10:04.712Z,1.58
2023-02-11T01:12:33.522Z,1.50
2023-02-11T01:15:02.310Z,0.61
2023-02-11T01:17:30.447Z,1.47
2023-02-11T01:19:57.562Z,1.20
2023-02-11T01:22:24.857Z,1.13
2023-02-11T01:24:51.637Z,1.23
2023-02-11T01:27:18.238Z,1.34
2023-02-11T01:29:46.239Z,1.31
2023-02-11T01:32:14.056Z,1.19
2023-02-11T01:34:42.603Z,1.29
2023-02-11T01:37:09.207Z,1.17
2023-02-11T01:39:35.968Z,1.27
2023-02-11T01:42:03.023Z,1.13
2023-02-11T01:44:32.142Z,1.23
2023-02-11T01:46:59.148Z,1.12
2023-02-11T01:49:30.418Z,1.20
2023-02-11T01:52:02.453Z,1.14
2023-02-11T01:54:33.405Z,0.60
2023-02-11T01:57:02.474Z,1.09
2023-02-11T01:59:34.662Z,1.08
2023-02-11T02:02:07.986Z,0.98
2023-02-11T02:04:42.095Z,1.03
2023-02-11T02:07:17.641Z,1.08
2023-02-11T02:09:49.587Z,1.06
2023-02-11T02:12:16.107Z,1.03
2023-02-11T02:14:42.965Z,0.79
2023-02-11T02:17:20.169Z,0.78
2023-02-11T02:20:13.395Z,1.00
2023-02-11T02:23:13.042Z,1.01
2023-02-11T02:26:12.004Z,1.03
2023-02-11T02:29:01.347Z,1.02
2023-02-11T02:31:49.007Z,0.84
2023-02-11T02:34:29.128Z,1.10
2023-02-11T02:37:03.650Z,1.13
2023-02-11T02:39:37.228Z,0.98
2023-02-11T02:42:04.956Z,0.74
2023-02-11T02:44:32.524Z,0.60
2023-02-11T02:46:59.641Z,1.14
2023-02-11T02:49:28.626Z,1.15
2023-02-11T02:52:09.364Z,1.19
2023-02-11T02:54:53.544Z,0.89
2023-02-11T02:57:30.566Z,1.12
2023-02-11T03:00:09.083Z,0.95
2023-02-11T03:02:42.802Z,1.10
2023-02-11T03:05:17.316Z,1.07
2023-02-11T03:07:48.630Z,0.75
2023-02-11T03:10:19.352Z,0.87
2023-02-11T03:12:48.178Z,0.96
2023-02-11T03:15:18.414Z,0.59
2023-02-11T03:17:49.598Z,0.90
2023-02-11T03:20:21.179Z,0.89
2023-02-11T03:22:52.642Z,0.80
2023-02-11T03:25:20.704Z,0.77
2023-02-11T03:27:52.762Z,0.72
2023-02-11T03:30:26.379Z,0.36
2023-02-11T03:32:57.572Z,0.51
2023-02-11T03:35:32.147Z,0.53
2023-02-11T03:38:03.269Z,0.63
2023-02-11T03:40:35.130Z,0.68
2023-02-11T03:43:06.976Z,0.47
2023-02-11T03:45:35.985Z,0.39
2023-02-11T03:48:09.074Z,0.66
2023-02-11T03:50:39.153Z,0.59
2023-02-11T03:53:07.737Z,0.58
2023-02-11T03:55:39.362Z,0.60
2023-02-11T03:58:06.471Z,0.64
2023-02-11T04:00:36.700Z,0.74
2023-02-11T04:03:04.867Z,0.74
2023-02-11T04:05:31.941Z,0.66
2023-02-11T04:08:00.651Z,0.59
2023-02-11T04:10:27.273Z,0.57
2023-02-11T04:12:53.876Z,0.52
2023-02-11T04:15:23.465Z,0.49
2023-02-11T04:17:51.043Z,0.55
2023-02-11T04:20:17.790Z,0.51
2023-02-11T04:22:45.069Z,0.61
2023-02-11T04:25:13.245Z,0.36
2023-02-11T04:27:40.008Z,0.51
2023-02-11T04:30:08.699Z,0.50
2023-02-11T04:32:35.349Z,0.43
2023-02-11T04:35:01.911Z,0.15
2023-02-11T04:37:28.584Z,-0.04
2023-02-11T04:39:55.159Z,0.26
2023-02-11T04:42:23.689Z,-0.29
2023-02-11T04:44:50.242Z,0.33
2023-02-11T04:47:16.912Z,0.37
2023-02-11T04:49:43.623Z,0.40
2023-02-11T04:52:10.746Z,0.47
2023-02-11T04:54:37.372Z,0.43
2023-02-11T04:57:04.000Z,0.50
2023-02-11T04:59:31.902Z,0.36
2023-02-11T05:01:58.661Z,0.51
2023-02-11T05:04:25.483Z,0.20
2023-02-11T05:06:52.205Z,0.63
2023-02-11T05:09:18.952Z,0.54
2023-02-11T05:11:45.597Z,0.63
2023-02-11T05:14:12.285Z,0.58
2023-02-11T05:16:40.388Z,0.55
2023-02-11T05:19:07.230Z,0.81
2023-02-11T05:21:34.451Z,0.86
2023-02-11T05:24:01.312Z,0.87
2023-02-11T05:26:28.077Z,0.54
2023-02-11T05:28:54.676Z,0.99
2023-02-11T05:31:21.797Z,0.99
2023-02-11T05:33:49.727Z,0.75
2023-02-11T05:36:16.358Z,0.74
2023-02-11T05:38:43.089Z,0.70
2023-02-11T05:41:10.542Z,0.87
2023-02-11T05:43:37.306Z,1.05
2023-02-11T05:46:05.873Z,1.12
2023-02-11T05:48:32.737Z,1.14
2023-02-11T05:51:00.683Z,1.17
2023-02-11T05:53:27.261Z,1.20
2023-02-11T05:55:53.868Z,1.23
2023-02-11T05:58:20.538Z,1.14
2023-02-11T06:00:47.131Z,1.10
2023-02-11T06:03:13.727Z,1.35
2023-02-11T06:05:41.977Z,1.38
2023-02-11T06:08:10.004Z,1.36
2023-02-11T06:10:36.594Z,1.46
2023-02-11T06:13:03.432Z,1.45
2023-02-11T06:15:30.288Z,1.42
2023-02-11T06:17:57.150Z,1.45
2023-02-11T06:20:23.797Z,1.47
2023-02-11T06:22:50.496Z,1.50
2023-02-11T06:25:18.772Z,1.51
2023-02-11T06:27:45.348Z,1.32
2023-02-11T06:30:12.661Z,1.32
2023-02-11T06:32:44.483Z,1.56
2023-02-11T06:35:12.570Z,1.40
2023-02-11T06:37:39.789Z,1.46
2023-02-11T06:40:07.368Z,1.71
2023-02-11T06:42:35.512Z,1.72
2023-02-11T06:45:03.130Z,1.69
2023-02-11T06:47:29.688Z,1.74
2023-02-11T06:49:56.394Z,1.72
2023-02-11T06:52:22.969Z,1.58
2023-02-11T06:54:49.887Z,1.84
2023-02-11T06:57:16.473Z,1.83
2023-02-11T06:59:44.811Z,1.85
2023-02-11T07:02:11.469Z,1.83
2023-02-11T07:04:38.121Z,1.83
2023-02-11T07:07:04.938Z,1.86
2023-02-11T07:09:31.571Z,1.90
2023-02-11T07:11:58.149Z,2.00
2023-02-11T07:14:26.178Z,1.79
2023-02-11T07:16:54.080Z,2.03
2023-02-11T07:19:21.010Z,2.00
2023-02-11T07:21:47.576Z,2.00
2023-02-11T07:24:14.208Z,1.93
2023-02-11T07:26:40.887Z,1.20
2023-02-11T07:29:07.736Z,2.03
2023-02-11T07:31:34.492Z,2.03
2023-02-11T07:34:03.006Z,2.04
2023-02-11T07:36:31.311Z,2.11
2023-02-11T07:38:58.305Z,2.14
2023-02-11T07:41:25.223Z,2.07
2023-02-11T07:43:52.498Z,2.21
2023-02-11T07:46:21.386Z,2.05
2023-02-11T07:48:48.578Z,2.27
2023-02-11T07:51:19.174Z,2.32
2023-02-11T07:53:46.665Z,2.41
2023-02-11T07:56:14.944Z,2.46
2023-02-11T07:58:42.781Z,2.49
2023-02-11T08:01:12.218Z,2.51
2023-02-11T08:03:40.061Z,2.49
2023-02-11T08:06:09.180Z,2.40
2023-02-11T08:08:37.854Z,2.58
2023-02-11T08:11:08.473Z,2.51
2023-02-11T08:13:35.612Z,2.39
2023-02-11T08:16:02.678Z,2.53
2023-02-11T08:18:29.889Z,2.64
2023-02-11T08:21:04.691Z,2.70
2023-02-11T08:23:31.310Z,2.41
2023-02-11T08:26:02.465Z,2.76
2023-02-11T08:28:29.123Z,2.83
2023-02-11T08:30:55.888Z,2.84
2023-02-11T08:33:22.793Z,2.84
2023-02-11T08:35:49.427Z,2.89
2023-02-11T08:38:16.098Z,2.90
2023-02-11T08:40:43.025Z,2.94
2023-02-11T08:43:11.096Z,2.91
2023-02-11T08:45:37.847Z,2.95
2023-02-11T08:48:04.548Z,2.89
2023-02-11T08:50:31.181Z,2.99
2023-02-11T08:52:58.000Z,3.01
2023-02-11T08:55:24.556Z,3.05
2023-02-11T08:57:51.210Z,3.09
2023-02-11T09:00:20.141Z,2.89
2023-02-11T09:02:47.094Z,3.17
2023-02-11T09:05:13.938Z,3.21
2023-02-11T09:07:40.796Z,3.27
2023-02-11T09:10:08.370Z,3.18
2023-02-11T09:12:35.129Z,3.34
2023-02-11T09:15:01.701Z,3.39
2023-02-11T09:17:29.873Z,3.44
2023-02-11T09:19:56.735Z,3.51
2023-02-11T09:22:24.075Z,3.54
2023-02-11T09:24:51.006Z,3.57
2023-02-11T09:27:17.762Z,3.59
2023-02-11T09:29:44.436Z,3.61
2023-02-11T09:32:11.503Z,3.65
2023-02-11T09:34:39.601Z,3.71
2023-02-11T09:37:06.441Z,3.74
2023-02-11T09:39:33.187Z,3.76
2023-02-11T09:42:15.191Z,3.65
2023-02-11T09:44:44.895Z,3.81
2023-02-11T09:47:23.733Z,3.83
2023-02-11T09:49:56.611Z,3.58
2023-02-11T09:52:37.198Z,3.63
2023-02-11T09:55:14.062Z,3.93
2023-02-11T09:57:40.763Z,3.96
2023-02-11T10:00:18.086Z,4.03
2023-02-11T10:02:58.095Z,3.70
2023-02-11T10:05:38.379Z,4.08
2023-02-11T10:08:16.568Z,4.12
2023-02-11T10:10:51.997Z,3.96
2023-02-11T10:13:47.423Z,4.19
2023-02-11T10:16:28.599Z,4.22
2023-02-11T10:19:16.713Z,4.27
2023-02-11T10:21:57.781Z,4.29
2023-02-11T10:24:26.775Z,4.32
2023-02-11T10:26:53.308Z,4.35
2023-02-11T10:29:35.361Z,4.38
2023-02-11T10:32:03.423Z,4.36
2023-02-11T10:34:30.007Z,4.39
2023-02-11T10:36:58.557Z,4.44
2023-02-11T10:39:27.544Z,4.45
2023-02-11T10:41:59.281Z,4.41
2023-02-11T10:44:30.755Z,4.51
2023-02-11T10:47:02.981Z,4.55
2023-02-11T10:49:40.453Z,4.60
2023-02-11T10:52:19.367Z,4.69
2023-02-11T10:54:57.972Z,4.73
2023-02-11T10:57:28.378Z,4.77
2023-02-11T10:59:59.468Z,4.83
2023-02-11T11:02:29.877Z,4.84
2023-02-11T11:04:57.186Z,4.88
2023-02-11T11:07:27.048Z,4.87
2023-02-11T11:09:55.948Z,4.84
2023-02-11T11:12:28.308Z,4.85
2023-02-11T11:14:56.085Z,4.98
2023-02-11T11:17:22.653Z,5.00
2023-02-11T11:19:49.627Z,5.01
2023-02-11T11:22:21.828Z,5.05
2023-02-11T11:24:50.615Z,5.08
2023-02-11T11:27:19.098Z,4.97
2023-02-11T11:29:49.327Z,5.10
2023-02-11T11:32:20.900Z,5.09
2023-02-11T11:34:51.181Z,5.10
2023-02-11T11:37:22.962Z,5.14
2023-02-11T11:39:58.036Z,5.17
2023-02-11T11:42:27.336Z,5.19
2023-02-11T11:44:59.258Z,5.21
2023-02-11T11:47:29.380Z,5.18
2023-02-11T11:50:11.854Z,5.27
2023-02-11T11:52:46.256Z,5.27
2023-02-11T11:55:19.379Z,5.33
2023-02-11T11:57:46.211Z,4.96
2023-02-11T12:00:19.166Z,5.41
2023-02-11T12:03:22.970Z,5.45
2023-02-11T12:06:04.961Z,5.47
2023-02-11T12:08:43.045Z,5.49
2023-02-11T12:11:20.255Z,5.49
2023-02-11T12:14:01.047Z,5.35
2023-02-11T12:16:36.179Z,5.48
2023-02-11T12:19:33.673Z,5.52
2023-02-11T12:22:10.441Z,5.54
2023-02-11T12:24:51.950Z,5.55
2023-02-11T12:27:33.752Z,5.57
2023-02-11T12:30:18.730Z,5.60
2023-02-11T12:32:50.576Z,5.63
2023-02-11T12:35:35.441Z,5.66
2023-02-11T12:38:24.537Z,5.52
2023-02-11T12:41:02.754Z,5.71
2023-02-11T12:43:36.773Z,5.74
2023-02-11T12:46:32.722Z,5.75
2023-02-11T12:49:21.894Z,5.78
2023-02-11T12:52:17.964Z,5.80
2023-02-11T12:54:53.257Z,5.80
2023-02-11T12:57:23.295Z,5.82
2023-02-11T12:59:58.385Z,5.83
2023-02-11T13:02:33.536Z,5.84
2023-02-11T13:05:03.877Z,5.86
2023-02-11T13:07:35.180Z,5.83
2023-02-11T13:10:07.161Z,5.87
2023-02-11T13:12:35.241Z,5.74
2023-02-11T13:15:07.884Z,5.74
2023-02-11T13:17:40.733Z,5.77
2023-02-11T13:20:20.993Z,5.64
2023-02-11T13:22:56.095Z,5.58
2023-02-11T13:25:31.852Z,5.66
2023-02-11T13:28:05.431Z,5.70
2023-02-11T13:30:35.225Z,5.74
2023-02-11T13:33:05.363Z,5.74
2023-02-11T13:35:33.414Z,5.68
2023-02-11T13:38:01.958Z,5.76
2023-02-11T13:40:31.016Z,5.80
2023-02-11T13:42:59.763Z,5.85
2023-02-11T13:45:30.614Z,5.80
2023-02-11T13:48:00.821Z,5.88
2023-02-11T13:50:28.876Z,5.88
2023-02-11T13:53:01.065Z,5.91
2023-02-11T13:55:28.804Z,5.89
2023-02-11T13:58:19.228Z,5.95
2023-02-11T14:00:50.311Z,5.87
2023-02-11T14:03:30.224Z,5.97
2023-02-11T14:06:12.444Z,6.02
2023-02-11T14:09:06.934Z,6.05
2023-02-11T14:11:46.148Z,6.08
2023-02-11T14:14:22.128Z,5.81
2023-02-11T14:17:28.527Z,6.17
2023-02-11T14:19:55.591Z,6.18
2023-02-11T14:22:25.021Z,6.20
2023-02-11T14:24:56.775Z,6.21
2023-02-11T14:27:47.299Z,6.11
2023-02-11T14:30:26.091Z,6.24
2023-02-11T14:33:14.041Z,6.27
2023-02-11T14:35:50.094Z,6.33
2023-02-11T14:38:24.708Z,6.38
2023-02-11T14:40:58.548Z,6.36
2023-02-11T14:43:29.631Z,6.42
2023-02-11T14:45:58.414Z,6.44
2023-02-11T14:48:29.869Z,6.48
2023-02-11T14:51:00.729Z,6.52
2023-02-11T14:53:28.775Z,6.56
2023-02-11T14:55:56.721Z,6.60
2023-02-11T14:58:25.022Z,6.61
2023-02-11T15:00:55.340Z,6.60
2023-02-11T15:03:33.967Z,6.71
2023-02-11T15:06:04.988Z,6.70
2023-02-11T15:08:34.792Z,6.69
2023-02-11T15:11:07.861Z,6.72
2023-02-11T15:13:35.218Z,6.71
2023-02-11T15:16:06.881Z,6.74
2023-02-11T15:18:37.719Z,6.75
2023-02-11T15:21:05.401Z,6.76
2023-02-11T15:23:32.071Z,6.78
2023-02-11T15:25:59.090Z,6.78
2023-02-11T15:28:28.566Z,6.81
2023-02-11T15:31:00.865Z,6.85
2023-02-11T15:33:28.407Z,6.83
2023-02-11T15:35:54.946Z,6.81
2023-02-11T15:38:21.690Z,6.88
2023-02-11T15:40:54.219Z,6.87
2023-02-11T15:43:20.875Z,6.85
2023-02-11T15:45:58.797Z,6.84
2023-02-11T15:48:34.083Z,6.82
2023-02-11T15:51:03.756Z,6.83
2023-02-11T15:53:33.421Z,6.67
2023-02-11T15:56:09.823Z,6.84
2023-02-11T15:58:37.742Z,6.82
2023-02-11T16:01:07.074Z,6.82
2023-02-11T16:03:33.985Z,6.83
2023-02-11T16:06:20.279Z,6.84
2023-02-11T16:08:57.912Z,6.83
2023-02-11T16:11:27.280Z,6.83
2023-02-11T16:13:53.886Z,6.83
2023-02-11T16:16:26.026Z,6.81
2023-02-11T16:19:04.385Z,6.78
2023-02-11T16:21:34.674Z,6.77
2023-02-11T16:24:01.941Z,6.76
2023-02-11T16:26:32.177Z,6.76
2023-02-11T16:29:07.961Z,6.75
2023-02-11T16:31:38.920Z,6.75
2023-02-11T16:34:13.542Z,6.73
2023-02-11T16:36:40.182Z,6.74
2023-02-11T16:39:06.806Z,6.73
2023-02-11T16:41:33.522Z,6.73
2023-02-11T16:44:00.790Z,6.40
2023-02-11T16:46:28.564Z,6.73
2023-02-11T16:48:58.736Z,6.75
2023-02-11T16:51:25.457Z,6.67
2023-02-11T16:53:51.990Z,6.40
2023-02-11T16:56:18.623Z,6.64
2023-02-11T16:58:45.575Z,6.61
2023-02-11T17:01:14.063Z,6.58
2023-02-11T17:03:41.057Z,6.57
2023-02-11T17:06:10.916Z,6.55
2023-02-11T17:08:37.462Z,6.54
2023-02-11T17:11:04.282Z,6.53
2023-02-11T17:13:30.839Z,6.51
2023-02-11T17:15:57.547Z,6.50
2023-02-11T17:18:24.438Z,6.49
2023-02-11T17:20:51.069Z,6.42
2023-02-11T17:23:18.978Z,6.38
2023-02-11T17:25:45.528Z,6.30
2023-02-11T17:28:12.240Z,6.40
2023-02-11T17:30:40.998Z,6.34
2023-02-11T17:33:07.543Z,6.36
2023-02-11T17:35:34.121Z,6.31
2023-02-11T17:38:00.658Z,6.33
2023-02-11T17:40:28.811Z,6.20
2023-02-11T17:42:55.335Z,6.21
2023-02-11T17:45:22.503Z,6.30
2023-02-11T17:47:49.206Z,6.29
2023-02-11T17:50:16.148Z,6.21
2023-02-11T17:52:42.715Z,6.10
2023-02-11T17:55:09.348Z,6.20
2023-02-11T17:57:37.914Z,6.26
2023-02-11T18:00:07.430Z,6.29
2023-02-11T18:02:39.416Z,6.25
2023-02-11T18:05:06.697Z,6.12
2023-02-11T18:07:33.330Z,6.13
2023-02-11T18:09:59.956Z,5.31
2023-02-11T18:12:26.478Z,6.09
2023-02-11T18:14:57.563Z,5.88
2023-02-11T18:17:25.037Z,6.01
2023-02-11T18:19:55.529Z,5.85
2023-02-11T18:22:22.368Z,5.94
2023-02-11T18:24:52.341Z,5.78
2023-02-11T18:27:19.690Z,5.73
2023-02-11T18:29:46.232Z,5.86
2023-02-11T18:32:14.244Z,5.87
2023-02-11T18:34:41.222Z,5.82
2023-02-11T18:37:07.849Z,5.84
2023-02-11T18:39:34.719Z,5.81
2023-02-11T18:42:01.515Z,5.79
2023-02-11T18:44:28.176Z,5.66
2023-02-11T18:46:54.798Z,5.70
2023-02-11T18:49:22.782Z,5.67
2023-02-11T18:51:49.376Z,5.62
2023-02-11T18:54:16.362Z,5.54
2023-02-11T18:56:43.146Z,5.45
2023-02-11T18:59:09.682Z,5.22
2023-02-11T19:01:36.708Z,5.44
2023-02-11T19:04:04.907Z,5.36
2023-02-11T19:06:34.648Z,5.31
2023-02-11T19:09:04.351Z,4.88
2023-02-11T19:11:32.225Z,5.15
2023-02-11T19:13:58.973Z,5.09
2023-02-11T19:16:25.835Z,5.03
2023-02-11T19:18:52.369Z,5.01
2023-02-11T19:21:20.126Z,5.01
2023-02-11T19:23:47.990Z,4.77
2023-02-11T19:26:14.496Z,4.92
2023-02-11T19:28:41.018Z,4.88
2023-02-11T19:31:08.828Z,4.85
2023-02-11T19:33:36.269Z,4.84
2023-02-11T19:36:04.796Z,4.84
2023-02-11T19:38:31.427Z,4.84
2023-02-11T19:40:59.657Z,4.88
2023-02-11T19:43:26.190Z,4.92
2023-02-11T19:45:53.727Z,4.93
2023-02-11T19:48:24.816Z,4.87
2023-02-11T19:50:51.462Z,4.92
2023-02-11T19:53:18.035Z,4.89
2023-02-11T19:55:44.584Z,4.87
2023-02-11T19:58:12.897Z,4.93
2023-02-11T20:00:39.730Z,4.98
2023-02-11T20:03:06.603Z,4.94
2023-02-11T20:05:33.633Z,4.96
2023-02-11T20:08:00.223Z,4.79
2023-02-11T20:10:26.837Z,5.01
2023-02-11T20:12:53.464Z,5.00
2023-02-11T20:15:21.369Z,5.01
2023-02-11T20:17:47.896Z,4.99
2023-02-11T20:20:14.866Z,4.99
2023-02-11T20:22:43.245Z,5.03
2023-02-11T20:25:09.787Z,5.04
2023-02-11T20:27:36.339Z,5.09
2023-02-11T20:30:03.448Z,5.11
2023-02-11T20:32:35.395Z,5.15
2023-02-11T20:35:03.940Z,4.97
2023-02-11T20:37:30.775Z,5.11
2023-02-11T20:39:57.387Z,5.18
2023-02-11T20:42:23.923Z,5.18
2023-02-11T20:44:50.651Z,5.22
2023-02-11T20:47:17.452Z,5.12
2023-02-11T20:49:45.499Z,5.23
2023-02-11T20:52:12.256Z,5.24
2023-02-11T20:54:38.848Z,5.22
2023-02-11T20:57:05.407Z,5.23
2023-02-11T20:59:32.216Z,5.12
2023-02-11T21:01:58.802Z,5.22
2023-02-11T21:04:27.776Z,5.07
2023-02-11T21:06:57.451Z,5.23
2023-02-11T21:09:26.052Z,5.26
2023-02-11T21:11:53.779Z,5.26
2023-02-11T21:14:22.716Z,5.33
2023-02-11T21:16:49.527Z,5.33
2023-02-11T21:19:16.933Z,5.31
2023-02-11T21:21:43.570Z,5.32
2023-02-11T21:24:12.015Z,5.17
2023-02-11T21:26:38.839Z,5.28
2023-02-11T21:29:07.931Z,5.31
2023-02-11T21:31:35.772Z,5.35
2023-02-11T21:34:02.708Z,5.25
2023-02-11T21:36:29.913Z,5.37
2023-02-11T21:38:56.906Z,5.37
2023-02-11T21:41:25.042Z,5.27
2023-02-11T21:43:52.181Z,4.93
2023-02-11T21:46:20.031Z,5.41
2023-02-11T21:48:47.039Z,5.37
2023-02-11T21:51:17.209Z,5.34
2023-02-11T21:53:43.990Z,5.00
2023-02-11T21:56:13.562Z,5.32
2023-02-11T21:58:41.989Z,5.33
2023-02-11T22:01:13.421Z,5.17
2023-02-11T22:03:40.196Z,4.97
2023-02-11T22:06:08.417Z,5.29
2023-02-11T22:08:35.372Z,5.25
2023-02-11T22:11:03.502Z,5.24
2023-02-11T22:13:30.335Z,5.24
2023-02-11T22:15:59.707Z,5.27
2023-02-11T22:18:26.681Z,5.10
2023-02-11T22:21:00.535Z,5.27
2023-02-11T22:23:27.452Z,5.27
2023-02-11T22:25:54.487Z,5.22
2023-02-11T22:28:21.472Z,5.20
2023-02-11T22:30:52.709Z,5.13
2023-02-11T22:33:21.072Z,5.29
2023-02-11T22:35:47.702Z,5.31
2023-02-11T22:38:14.308Z,5.33
2023-02-11T22:40:42.026Z,5.31
2023-02-11T22:43:08.916Z,5.31
2023-02-11T22:45:35.936Z,5.31
2023-02-11T22:48:02.808Z,5.12
2023-02-11T22:50:30.908Z,5.29
2023-02-11T22:52:57.619Z,5.11
2023-02-11T22:55:24.436Z,5.29
2023-02-11T22:57:51.062Z,5.26
2023-02-11T23:00:18.139Z,5.31
2023-02-11T23:02:44.822Z,5.29
2023-02-11T23:05:11.462Z,5.28
2023-02-11T23:07:39.453Z,5.35
2023-02-11T23:10:07.233Z,5.35
2023-02-11T23:12:33.889Z,5.42
2023-02-11T23:15:02.122Z,5.40
2023-02-11T23:17:30.751Z,5.38
2023-02-11T23:19:57.352Z,5.35
2023-02-11T23:22:23.991Z,5.21
2023-02-11T23:24:51.873Z,5.28
2023-02-11T23:27:18.477Z,5.25
2023-02-11T23:29:45.361Z,5.30
2023-02-11T23:32:12.051Z,5.33
2023-02-11T23:34:38.695Z,5.24
2023-02-11T23:37:05.659Z,5.34
2023-02-11T23:39:32.496Z,5.31
2023-02-11T23:42:00.491Z,5.33
2023-02-11T23:44:27.624Z,5.36
2023-02-11T23:46:54.276Z,5.35
2023-02-11T23:49:21.081Z,5.31
2023-02-11T23:51:47.859Z,5.28
2023-02-11T23:54:14.970Z,5.26
2023-02-11T23:56:41.631Z,5.26
2023-02-11T23:59:09.513Z,5.27
